Crown Princess — ZCDM6 — position and weather

sailwx.info

Track history (hours):
 
Tides and Currents Weather Stations Pressure Air Temp Water Temp Dewpoint Dewpoint Depression Visibility Wind Speed Wind Dir Waves Ship Positions

Crown Princess

Last reported at 2015-May-24 11:31 UTC. Time now 2015-May-27 05:47 UTC.
Position N 49°21' W 127°00'.

Type: Ship. MMSI: 310500000.

Date/timePositionNaut miles runAvg speedWind from/ knotsBaromVisibWave heightAir tempDewpointWater temp
2015-May-24 11:31N 49°21' W 127°00'2122.3
2015-May-24 10:33N 49°08' W 126°34'2322.6
2015-May-24 09:34N 48°55' W 126°06'2322.6
2015-May-24 08:33N 48°41' W 125°38'2221.9
2015-May-24 07:33N 48°31' W 125°09'5322.5
2015-May-24 05:13N 48°17' W 123°52'1420.8
2015-May-24 04:34N 48°15' W 123°32'1413.7
2015-May-24 03:31N 48°11' W 123°11'3316.7
2015-May-24 01:34N 47°55' W 122°29'1817.5
2015-May-24 00:33N 47°37' W 122°24'1 0.5
2015-May-23 23:31N 47°38' W 122°23'0 0.0
2015-May-23 22:31N 47°38' W 122°23'0 0.0
2015-May-23 21:34N 47°38' W 122°23'0 0.0
2015-May-23 20:33N 47°38' W 122°23'0 0.0
2015-May-23 19:33N 47°38' W 122°23'0 0.0
2015-May-23 18:32N 47°38' W 122°23'0 0.0
2015-May-23 17:32N 47°38' W 122°23'0 0.0
2015-May-23 16:31N 47°38' W 122°23'0 0.0
2015-May-23 15:31N 47°38' W 122°23'0 0.0
2015-May-23 14:33N 47°38' W 122°23'0 0.0
2015-May-23 13:33N 47°38' W 122°23'0 0.2
2015-May-23 12:33N 47°38' W 122°23'7 7.2
2015-May-23 11:34N 47°44' W 122°27'1413.7
2015-May-23 10:33N 47°57' W 122°34'1717.1
2015-May-23 09:33N 48°11' W 122°49'1818.4
2015-May-23 08:33N 48°11' W 123°17'1010.4
2015-May-23 07:33N 48°19' W 123°28'7 1.1
2015-May-23 01:27N 48°25' W 123°24'910.1
2015-May-23 00:33N 48°16' W 123°26'2120.2
2015-May-22 23:32N 48°14' W 123°57'2020.4
2015-May-22 22:33N 48°23' W 124°25'2020.3
2015-May-22 21:33N 48°28' W 124°54'1918.7
2015-May-22 20:33N 48°33' W 125°21'2020.5
2015-May-22 19:33N 48°43' W 125°48'2120.7
2015-May-22 18:33N 48°55' W 126°14'2121.2
2015-May-22 17:33N 49°08' W 126°40'2222.0
2015-May-22 16:34N 49°22' W 127°06'61115.2
2015-May-21 00:25N 58°14' W 135°33'1517.9
2015-May-20 23:33N 58°22' W 135°58'1211.5
2015-May-20 22:33N 58°33' W 136°04'1413.6
2015-May-20 21:33N 58°45' W 136°18'3 0.5
2015-May-20 15:17N 58°43' W 136°14'1216.3
2015-May-20 14:33N 58°32' W 136°04'1111.1
2015-May-20 13:33N 58°21' W 135°57'1312.9
2015-May-20 12:34N 58°16' W 135°35'  
2015-May-18 07:00N 54°54' W 134°06'42320.5 310 / 211021.110.8 2.0 9.5 7.610.5
2015-May-17 10:24N 49°21' W 127°01'1922.4
2015-May-17 09:33N 49°10' W 126°38'2323.1
2015-May-17 08:33N 48°56' W 126°10'2323.0
2015-May-17 07:33N 48°43' W 125°41'2322.7
2015-May-17 06:33N 48°31' W 125°12'2322.6
2015-May-17 05:33N 48°29' W 124°38'2121.0
2015-May-17 04:33N 48°21' W 124°09'2221.6
2015-May-17 03:33N 48°16' W 123°37'1615.5
2015-May-17 02:33N 48°10' W 123°16'3417.0
2015-May-17 00:34N 47°56' W 122°29'1818.2
2015-May-16 23:34N 47°38' W 122°26'2 1.7
2015-May-16 22:31N 47°38' W 122°23'0 0.0
2015-May-16 21:31N 47°38' W 122°23'0 0.0
2015-May-16 20:33N 47°38' W 122°23'0 0.0
2015-May-16 19:33N 47°38' W 122°23'0 0.0
2015-May-16 18:32N 47°38' W 122°23'0 0.0
2015-May-16 17:32N 47°38' W 122°23'0 0.0
2015-May-16 16:32N 47°38' W 122°23'0 0.0
2015-May-16 15:28N 47°38' W 122°23'0 0.0
2015-May-16 14:31N 47°38' W 122°23'0 0.0
2015-May-16 13:33N 47°38' W 122°23'0 0.0
2015-May-16 12:33N 47°38' W 122°23'5 5.0
2015-May-16 11:33N 47°41' W 122°28'1110.9
2015-May-16 10:33N 47°52' W 122°29'1111.0
2015-May-16 09:31N 48°02' W 122°39'1111.4
2015-May-16 08:31N 48°11' W 122°49'1211.7
2015-May-16 07:30N 48°12' W 123°07'1111.4
2015-May-16 06:33N 48°10' W 123°23'1111.5
2015-May-16 05:33N 48°21' W 123°24'2 1.8
2015-May-16 04:33N 48°21' W 123°21'0 0.1
2015-May-16 03:33N 48°21' W 123°21'0 0.1
2015-May-16 02:32N 48°21' W 123°21'0 0.1
2015-May-16 01:32N 48°21' W 123°21'0 0.1
2015-May-16 00:32N 48°21' W 123°21'0 0.1
2015-May-15 23:33N 48°21' W 123°21'4 4.4
2015-May-15 22:33N 48°24' W 123°26'1 0.8
2015-May-15 21:33N 48°24' W 123°26'1 1.3
2015-May-15 20:33N 48°26' W 123°27'1 0.6
2015-May-15 19:33N 48°26' W 123°26'0 0.3
2015-May-15 18:28N 48°26' W 123°25'0 0.0
2015-May-15 17:28N 48°26' W 123°25'0 0.0
2015-May-15 14:26N 48°26' W 123°25'0 0.0
2015-May-15 12:31N 48°26' W 123°25'0 0.0
2015-May-15 11:31N 48°26' W 123°25'0 0.0
2015-May-15 10:18N 48°26' W 123°25'0 0.0
2015-May-15 09:30N 48°26' W 123°25'0 0.0
2015-May-15 08:21N 48°26' W 123°25'0 0.0
2015-May-15 07:23N 48°26' W 123°25'0 0.0
2015-May-15 06:29N 48°26' W 123°25'0 0.0
2015-May-15 05:19N 48°26' W 123°25'0 0.0
2015-May-15 04:22N 48°26' W 123°25'0 0.0
2015-May-15 02:27N 48°26' W 123°25'0 0.0
2015-May-15 00:08N 48°26' W 123°25'0 0.0
2015-May-14 23:32N 48°26' W 123°25'0 0.0
2015-May-14 21:25N 48°26' W 123°25'0 0.0
2015-May-14 20:31N 48°26' W 123°25'0 0.0
2015-May-14 19:33N 48°26' W 123°25'0 0.0
2015-May-14 18:30N 48°26' W 123°25'0 0.0
2015-May-14 17:26N 48°26' W 123°25'0 0.0
2015-May-14 16:20N 48°26' W 123°25'0 0.0
2015-May-14 15:19N 48°26' W 123°25'  
Track history (hours):
 
Tides and Currents Weather Stations Pressure Air Temp Water Temp Dewpoint Dewpoint Depression Visibility Wind Speed Wind Dir Waves Ship Positions

Crown Princess

Last reported at 2015-May-24 11:31 UTC. Time now 2015-May-27 05:47 UTC.
Position N 49°21' W 127°00'.

Type: Ship. MMSI: 310500000.

Date/timePositionNaut miles runAvg speedWind from/ knotsBaromVisibWave heightAir tempDewpointWater temp
2015-May-24 11:31N 49°21' W 127°00'2122.3
2015-May-24 10:33N 49°08' W 126°34'2322.6
2015-May-24 09:34N 48°55' W 126°06'2322.6
2015-May-24 08:33N 48°41' W 125°38'2221.9
2015-May-24 07:33N 48°31' W 125°09'5322.5
2015-May-24 05:13N 48°17' W 123°52'1420.8
2015-May-24 04:34N 48°15' W 123°32'1413.7
2015-May-24 03:31N 48°11' W 123°11'3316.7
2015-May-24 01:34N 47°55' W 122°29'1817.5
2015-May-24 00:33N 47°37' W 122°24'1 0.5
2015-May-23 23:31N 47°38' W 122°23'0 0.0
2015-May-23 22:31N 47°38' W 122°23'0 0.0
2015-May-23 21:34N 47°38' W 122°23'0 0.0
2015-May-23 20:33N 47°38' W 122°23'0 0.0
2015-May-23 19:33N 47°38' W 122°23'0 0.0
2015-May-23 18:32N 47°38' W 122°23'0 0.0
2015-May-23 17:32N 47°38' W 122°23'0 0.0
2015-May-23 16:31N 47°38' W 122°23'0 0.0
2015-May-23 15:31N 47°38' W 122°23'0 0.0
2015-May-23 14:33N 47°38' W 122°23'0 0.0
2015-May-23 13:33N 47°38' W 122°23'0 0.2
2015-May-23 12:33N 47°38' W 122°23'7 7.2
2015-May-23 11:34N 47°44' W 122°27'1413.7
2015-May-23 10:33N 47°57' W 122°34'1717.1
2015-May-23 09:33N 48°11' W 122°49'1818.4
2015-May-23 08:33N 48°11' W 123°17'1010.4
2015-May-23 07:33N 48°19' W 123°28'7 1.1
2015-May-23 01:27N 48°25' W 123°24'910.1
2015-May-23 00:33N 48°16' W 123°26'2120.2
2015-May-22 23:32N 48°14' W 123°57'2020.4
2015-May-22 22:33N 48°23' W 124°25'2020.3
2015-May-22 21:33N 48°28' W 124°54'1918.7
2015-May-22 20:33N 48°33' W 125°21'2020.5
2015-May-22 19:33N 48°43' W 125°48'2120.7
2015-May-22 18:33N 48°55' W 126°14'2121.2
2015-May-22 17:33N 49°08' W 126°40'2222.0
2015-May-22 16:34N 49°22' W 127°06'61115.2
2015-May-21 00:25N 58°14' W 135°33'1517.9
2015-May-20 23:33N 58°22' W 135°58'1211.5
2015-May-20 22:33N 58°33' W 136°04'1413.6
2015-May-20 21:33N 58°45' W 136°18'3 0.5
2015-May-20 15:17N 58°43' W 136°14'1216.3
2015-May-20 14:33N 58°32' W 136°04'1111.1
2015-May-20 13:33N 58°21' W 135°57'1312.9
2015-May-20 12:34N 58°16' W 135°35'  
2015-May-18 07:00N 54°54' W 134°06'42320.5 310 / 211021.110.8 2.0 9.5 7.610.5
2015-May-17 10:24N 49°21' W 127°01'1922.4
2015-May-17 09:33N 49°10' W 126°38'2323.1
2015-May-17 08:33N 48°56' W 126°10'2323.0
2015-May-17 07:33N 48°43' W 125°41'2322.7
2015-May-17 06:33N 48°31' W 125°12'2322.6
2015-May-17 05:33N 48°29' W 124°38'2121.0
2015-May-17 04:33N 48°21' W 124°09'2221.6
2015-May-17 03:33N 48°16' W 123°37'1615.5
2015-May-17 02:33N 48°10' W 123°16'3417.0
2015-May-17 00:34N 47°56' W 122°29'1818.2
2015-May-16 23:34N 47°38' W 122°26'2 1.7
2015-May-16 22:31N 47°38' W 122°23'0 0.0
2015-May-16 21:31N 47°38' W 122°23'0 0.0
2015-May-16 20:33N 47°38' W 122°23'0 0.0
2015-May-16 19:33N 47°38' W 122°23'0 0.0
2015-May-16 18:32N 47°38' W 122°23'0 0.0
2015-May-16 17:32N 47°38' W 122°23'0 0.0
2015-May-16 16:32N 47°38' W 122°23'0 0.0
2015-May-16 15:28N 47°38' W 122°23'0 0.0
2015-May-16 14:31N 47°38' W 122°23'0 0.0
2015-May-16 13:33N 47°38' W 122°23'0 0.0
2015-May-16 12:33N 47°38' W 122°23'5 5.0
2015-May-16 11:33N 47°41' W 122°28'1110.9
2015-May-16 10:33N 47°52' W 122°29'1111.0
2015-May-16 09:31N 48°02' W 122°39'1111.4
2015-May-16 08:31N 48°11' W 122°49'1211.7
2015-May-16 07:30N 48°12' W 123°07'1111.4
2015-May-16 06:33N 48°10' W 123°23'1111.5
2015-May-16 05:33N 48°21' W 123°24'2 1.8
2015-May-16 04:33N 48°21' W 123°21'0 0.1
2015-May-16 03:33N 48°21' W 123°21'0 0.1
2015-May-16 02:32N 48°21' W 123°21'0 0.1
2015-May-16 01:32N 48°21' W 123°21'0 0.1
2015-May-16 00:32N 48°21' W 123°21'0 0.1
2015-May-15 23:33N 48°21' W 123°21'4 4.4
2015-May-15 22:33N 48°24' W 123°26'1 0.8
2015-May-15 21:33N 48°24' W 123°26'1 1.3
2015-May-15 20:33N 48°26' W 123°27'1 0.6
2015-May-15 19:33N 48°26' W 123°26'0 0.3
2015-May-15 18:28N 48°26' W 123°25'0 0.0
2015-May-15 17:28N 48°26' W 123°25'0 0.0
2015-May-15 14:26N 48°26' W 123°25'0 0.0
2015-May-15 12:31N 48°26' W 123°25'0 0.0
2015-May-15 11:31N 48°26' W 123°25'0 0.0
2015-May-15 10:18N 48°26' W 123°25'0 0.0
2015-May-15 09:30N 48°26' W 123°25'0 0.0
2015-May-15 08:21N 48°26' W 123°25'0 0.0
2015-May-15 07:23N 48°26' W 123°25'0 0.0
2015-May-15 06:29N 48°26' W 123°25'0 0.0
2015-May-15 05:19N 48°26' W 123°25'0 0.0
2015-May-15 04:22N 48°26' W 123°25'0 0.0
2015-May-15 02:27N 48°26' W 123°25'0 0.0
2015-May-15 00:08N 48°26' W 123°25'0 0.0
2015-May-14 23:32N 48°26' W 123°25'0 0.0
2015-May-14 21:25N 48°26' W 123°25'0 0.0
2015-May-14 20:31N 48°26' W 123°25'0 0.0
2015-May-14 19:33N 48°26' W 123°25'0 0.0
2015-May-14 18:30N 48°26' W 123°25'0 0.0
2015-May-14 17:26N 48°26' W 123°25'0 0.0
2015-May-14 16:20N 48°26' W 123°25'0 0.0
2015-May-14 15:19N 48°26' W 123°25'  

Dump ship's entire track history